KNUQ

Moffett Federal Afld Airport

Mountain View, California, USA
METAR KNUQ 151456Z 34004KT 10SM OVC016 17/13 A2997 RMK AO2 SLP152 T01720133 53010
Observed Flight Rules
Aug-15 @ 14:56 UTC (4 minutes ago) Marginal Visual Flight Rules
Wind Visibility Clouds
340° at 4 knots 10 miles
  • Overcast at 1,600' AGL
Temperatures Readings
Current 17°C / 63°F
Dewpoint 13°C / 55°F
Humidity 77%
Altimeter 29.97" Hg
Pressure 1015.2 hPa
Elevation 12
METAR KNUQ 151456Z 34004KT 10SM OVC016 17/13 A2997 RMK AO2 SLP152 T01720133 53010
Observed Flight Rules
Aug-15 @ 14:56 UTC
(4 minutes ago)
MVFR
Wind Visibility
340° at 4 knots 10 miles
Clouds
  • Overcast at 1,600' AGL
Temperature Dewpoint
17°C / 63°F 13°C / 55°F
Humidity Altimeter Pressure
77% 29.97" Hg 1015.2 hPa